sensor_id;sensor_type;location;lat;lon;timestamp;pressure;altitude;pressure_sealevel;temperature;humidity
54920;BME280;63804;53.120;8.764;2023-03-18T00:00:01;100795.09;;;10.31;57.09
54920;BME280;63804;53.120;8.764;2023-03-18T00:02:31;100783.50;;;10.32;57.29
54920;BME280;63804;53.120;8.764;2023-03-18T00:04:57;100780.00;;;10.31;57.27
54920;BME280;63804;53.120;8.764;2023-03-18T00:07:24;100780.00;;;10.31;57.48
54920;BME280;63804;53.120;8.764;2023-03-18T00:09:56;100773.69;;;10.32;57.74
54920;BME280;63804;53.120;8.764;2023-03-18T00:12:23;100785.31;;;10.31;57.78
54920;BME280;63804;53.120;8.764;2023-03-18T00:14:49;100777.47;;;10.30;58.23
54920;BME280;63804;53.120;8.764;2023-03-18T00:17:15;100780.97;;;10.30;58.06
54920;BME280;63804;53.120;8.764;2023-03-18T00:19:40;100785.44;;;10.30;58.09
54920;BME280;63804;53.120;8.764;2023-03-18T00:22:07;100790.75;;;10.30;57.96
54920;BME280;63804;53.120;8.764;2023-03-18T00:24:32;100792.56;;;10.29;58.29
54920;BME280;63804;53.120;8.764;2023-03-18T00:26:58;100790.84;;;10.28;58.49
54920;BME280;63804;53.120;8.764;2023-03-18T00:29:23;100801.47;;;10.28;58.80
54920;BME280;63804;53.120;8.764;2023-03-18T00:31:50;100794.50;;;10.27;59.09
54920;BME280;63804;53.120;8.764;2023-03-18T00:34:16;100793.03;;;10.23;59.60
54920;BME280;63804;53.120;8.764;2023-03-18T00:36:42;100798.50;;;10.22;60.35
54920;BME280;63804;53.120;8.764;2023-03-18T00:39:10;100797.16;;;10.16;60.73
54920;BME280;63804;53.120;8.764;2023-03-18T00:41:37;100792.09;;;10.13;61.12
54920;BME280;63804;53.120;8.764;2023-03-18T00:44:03;100798.59;;;10.09;61.69
54920;BME280;63804;53.120;8.764;2023-03-18T00:46:32;100796.69;;;10.11;61.53
54920;BME280;63804;53.120;8.764;2023-03-18T00:49:00;100790.53;;;10.10;61.29
54920;BME280;63804;53.120;8.764;2023-03-18T00:51:28;100792.34;;;10.10;61.53
54920;BME280;63804;53.120;8.764;2023-03-18T00:53:56;100788.72;;;10.11;61.47
54920;BME280;63804;53.120;8.764;2023-03-18T00:56:24;100792.22;;;10.11;61.29
54920;BME280;63804;53.120;8.764;2023-03-18T00:58:51;100794.75;;;10.13;61.42
54920;BME280;63804;53.120;8.764;2023-03-18T01:01:19;100802.69;;;10.13;61.30
54920;BME280;63804;53.120;8.764;2023-03-18T01:03:45;100802.84;;;10.11;61.20
54920;BME280;63804;53.120;8.764;2023-03-18T01:06:20;100801.84;;;10.12;61.44
54920;BME280;63804;53.120;8.764;2023-03-18T01:08:47;100799.34;;;10.11;61.55
54920;BME280;63804;53.120;8.764;2023-03-18T01:11:13;100801.84;;;10.12;61.44
54920;BME280;63804;53.120;8.764;2023-03-18T01:13:39;100806.31;;;10.12;61.74
54920;BME280;63804;53.120;8.764;2023-03-18T01:16:05;100811.63;;;10.12;62.01
54920;BME280;63804;53.120;8.764;2023-03-18T01:18:32;100803.91;;;10.09;62.20
54920;BME280;63804;53.120;8.764;2023-03-18T01:20:59;100809.50;;;10.06;62.70
54920;BME280;63804;53.120;8.764;2023-03-18T01:23:24;100805.97;;;10.05;63.20
54920;BME280;63804;53.120;8.764;2023-03-18T01:25:51;100807.06;;;10.03;63.17
54920;BME280;63804;53.120;8.764;2023-03-18T01:28:17;100804.78;;;9.98;63.45
54920;BME280;63804;53.120;8.764;2023-03-18T01:30:42;100803.44;;;9.92;64.00
54920;BME280;63804;53.120;8.764;2023-03-18T01:33:08;100804.66;;;9.88;64.17
54920;BME280;63804;53.120;8.764;2023-03-18T01:35:34;100815.88;;;9.92;64.04
54920;BME280;63804;53.120;8.764;2023-03-18T01:38:02;100808.75;;;9.92;64.16
54920;BME280;63804;53.120;8.764;2023-03-18T01:40:31;100803.91;;;9.86;64.47
54920;BME280;63804;53.120;8.764;2023-03-18T01:43:11;100815.88;;;9.92;64.64
54920;BME280;63804;53.120;8.764;2023-03-18T01:45:37;100813.59;;;9.87;64.80
54920;BME280;63804;53.120;8.764;2023-03-18T01:48:03;100810.19;;;9.85;65.02
54920;BME280;63804;53.120;8.764;2023-03-18T01:50:31;100813.88;;;9.83;65.77
54920;BME280;63804;53.120;8.764;2023-03-18T01:53:03;100805.00;;;9.84;66.01
54920;BME280;63804;53.120;8.764;2023-03-18T01:55:31;100807.13;;;9.79;65.91
54920;BME280;63804;53.120;8.764;2023-03-18T01:57:58;100811.59;;;9.78;66.26
54920;BME280;63804;53.120;8.764;2023-03-18T02:00:26;100807.25;;;9.77;66.30
54920;BME280;63804;53.120;8.764;2023-03-18T02:02:58;100810.28;;;9.73;66.80
54920;BME280;63804;53.120;8.764;2023-03-18T02:05:25;100809.91;;;9.66;67.20
54920;BME280;63804;53.120;8.764;2023-03-18T02:07:51;100808.00;;;9.68;67.04
54920;BME280;63804;53.120;8.764;2023-03-18T02:10:29;100807.13;;;9.67;67.30
54920;BME280;63804;53.120;8.764;2023-03-18T02:12:59;100799.53;;;9.63;67.29
54920;BME280;63804;53.120;8.764;2023-03-18T02:15:27;100799.75;;;9.60;67.44
54920;BME280;63804;53.120;8.764;2023-03-18T02:17:59;100808.44;;;9.62;67.49
54920;BME280;63804;53.120;8.764;2023-03-18T02:23:25;100790.25;;;9.57;67.96
54920;BME280;63804;53.120;8.764;2023-03-18T02:26:07;100785.78;;;9.58;68.44
54920;BME280;63804;53.120;8.764;2023-03-18T02:28:35;100787.97;;;9.53;68.08
54920;BME280;63804;53.120;8.764;2023-03-18T02:31:04;100787.22;;;9.51;68.09
54920;BME280;63804;53.120;8.764;2023-03-18T02:33:35;100787.44;;;9.47;68.53
54920;BME280;63804;53.120;8.764;2023-03-18T02:36:11;100780.59;;;9.45;68.59
54920;BME280;63804;53.120;8.764;2023-03-18T02:38:42;100785.53;;;9.50;68.92
54920;BME280;63804;53.120;8.764;2023-03-18T02:41:21;100788.28;;;9.48;68.85
54920;BME280;63804;53.120;8.764;2023-03-18T02:43:48;100793.72;;;9.46;69.01
54920;BME280;63804;53.120;8.764;2023-03-18T02:48:52;100805.06;;;9.49;68.97
54920;BME280;63804;53.120;8.764;2023-03-18T02:51:18;100806.00;;;9.47;69.17
54920;BME280;63804;53.120;8.764;2023-03-18T02:53:45;100806.25;;;9.44;69.44
54920;BME280;63804;53.120;8.764;2023-03-18T02:56:11;100806.97;;;9.46;69.18
54920;BME280;63804;53.120;8.764;2023-03-18T02:58:37;100816.00;;;9.44;69.50
54920;BME280;63804;53.120;8.764;2023-03-18T03:01:05;100816.84;;;9.44;69.73
54920;BME280;63804;53.120;8.764;2023-03-18T03:03:33;100809.75;;;9.45;69.93
54920;BME280;63804;53.120;8.764;2023-03-18T03:06:00;100812.50;;;9.43;69.68
54920;BME280;63804;53.120;8.764;2023-03-18T03:08:26;100814.31;;;9.43;69.85
54920;BME280;63804;53.120;8.764;2023-03-18T03:10:52;100827.44;;;9.44;69.82
54920;BME280;63804;53.120;8.764;2023-03-18T03:13:19;100833.38;;;9.48;69.56
54920;BME280;63804;53.120;8.764;2023-03-18T03:15:45;100823.38;;;9.52;69.69
54920;BME280;63804;53.120;8.764;2023-03-18T03:18:11;100819.41;;;9.46;70.11
54920;BME280;63804;53.120;8.764;2023-03-18T03:20:37;100822.16;;;9.44;69.98
54920;BME280;63804;53.120;8.764;2023-03-18T03:23:07;100821.06;;;9.47;70.24
54920;BME280;63804;53.120;8.764;2023-03-18T03:25:35;100814.56;;;9.51;70.11
54920;BME280;63804;53.120;8.764;2023-03-18T03:28:01;100814.22;;;9.56;69.90
54920;BME280;63804;53.120;8.764;2023-03-18T03:30:28;100821.47;;;9.54;70.05
54920;BME280;63804;53.120;8.764;2023-03-18T03:32:53;100814.72;;;9.50;70.17
54920;BME280;63804;53.120;8.764;2023-03-18T03:35:20;100821.69;;;9.51;70.36
54920;BME280;63804;53.120;8.764;2023-03-18T03:37:45;100826.03;;;9.52;70.22
54920;BME280;63804;53.120;8.764;2023-03-18T03:40:14;100825.09;;;9.53;70.16
54920;BME280;63804;53.120;8.764;2023-03-18T03:42:41;100823.97;;;9.55;70.25
54920;BME280;63804;53.120;8.764;2023-03-18T03:45:08;100835.69;;;9.53;70.31
54920;BME280;63804;53.120;8.764;2023-03-18T03:47:34;100830.25;;;9.54;70.17
54920;BME280;63804;53.120;8.764;2023-03-18T03:49:59;100834.81;;;9.52;70.18
54920;BME280;63804;53.120;8.764;2023-03-18T03:52:25;100837.38;;;9.54;70.34
54920;BME280;63804;53.120;8.764;2023-03-18T03:54:51;100843.53;;;9.54;70.36
54920;BME280;63804;53.120;8.764;2023-03-18T03:57:17;100846.03;;;9.56;70.27
54920;BME280;63804;53.120;8.764;2023-03-18T03:59:42;100845.81;;;9.59;70.26
54920;BME280;63804;53.120;8.764;2023-03-18T04:02:08;100843.16;;;9.59;70.00
54920;BME280;63804;53.120;8.764;2023-03-18T04:04:34;100843.28;;;9.57;70.22
54920;BME280;63804;53.120;8.764;2023-03-18T04:06:59;100847.63;;;9.58;70.11
54920;BME280;63804;53.120;8.764;2023-03-18T04:09:25;100840.28;;;9.62;69.87
54920;BME280;63804;53.120;8.764;2023-03-18T04:11:51;100843.06;;;9.60;70.08
54920;BME280;63804;53.120;8.764;2023-03-18T04:14:16;100848.59;;;9.57;70.24
54920;BME280;63804;53.120;8.764;2023-03-18T04:16:42;100854.63;;;9.59;70.42
54920;BME280;63804;53.120;8.764;2023-03-18T04:19:09;100849.22;;;9.61;70.16
54920;BME280;63804;53.120;8.764;2023-03-18T04:21:34;100843.16;;;9.59;70.05
54920;BME280;63804;53.120;8.764;2023-03-18T04:24:02;100849.22;;;9.61;70.18
54920;BME280;63804;53.120;8.764;2023-03-18T04:26:30;100855.13;;;9.64;69.85
54920;BME280;63804;53.120;8.764;2023-03-18T04:28:57;100850.06;;;9.61;70.26
54920;BME280;63804;53.120;8.764;2023-03-18T04:31:22;100850.66;;;9.65;69.98
54920;BME280;63804;53.120;8.764;2023-03-18T04:33:48;100852.34;;;9.66;70.16
54920;BME280;63804;53.120;8.764;2023-03-18T04:36:14;100849.22;;;9.61;70.20
54920;BME280;63804;53.120;8.764;2023-03-18T04:38:39;100856.56;;;9.57;70.10
54920;BME280;63804;53.120;8.764;2023-03-18T04:41:05;100862.94;;;9.55;70.28
54920;BME280;63804;53.120;8.764;2023-03-18T04:43:31;100860.41;;;9.53;70.40
54920;BME280;63804;53.120;8.764;2023-03-18T04:45:56;100874.03;;;9.49;70.34
54920;BME280;63804;53.120;8.764;2023-03-18T04:48:22;100876.28;;;9.42;70.82
54920;BME280;63804;53.120;8.764;2023-03-18T04:50:48;100871.94;;;9.41;70.77
54920;BME280;63804;53.120;8.764;2023-03-18T04:53:14;100872.88;;;9.40;70.92
54920;BME280;63804;53.120;8.764;2023-03-18T04:55:39;100876.91;;;9.45;70.83
54920;BME280;63804;53.120;8.764;2023-03-18T04:58:05;100884.28;;;9.53;70.48
54920;BME280;63804;53.120;8.764;2023-03-18T05:00:30;100868.34;;;9.53;70.32
54920;BME280;63804;53.120;8.764;2023-03-18T05:02:56;100882.34;;;9.55;70.45
54920;BME280;63804;53.120;8.764;2023-03-18T05:05:22;100873.66;;;9.53;70.30
54920;BME280;63804;53.120;8.764;2023-03-18T05:07:48;100870.28;;;9.51;70.63
54920;BME280;63804;53.120;8.764;2023-03-18T05:10:13;100881.72;;;9.52;70.28
54920;BME280;63804;53.120;8.764;2023-03-18T05:12:39;100887.03;;;9.52;70.42
54920;BME280;63804;53.120;8.764;2023-03-18T05:15:05;100881.34;;;9.45;70.63
54920;BME280;63804;53.120;8.764;2023-03-18T05:17:31;100878.41;;;9.37;71.04
54920;BME280;63804;53.120;8.764;2023-03-18T05:19:56;100881.31;;;9.34;71.26
54920;BME280;63804;53.120;8.764;2023-03-18T05:22:22;100885.88;;;9.32;71.08
54920;BME280;63804;53.120;8.764;2023-03-18T05:24:48;100887.81;;;9.30;71.36
54920;BME280;63804;53.120;8.764;2023-03-18T05:27:16;100892.38;;;9.28;71.30
54920;BME280;63804;53.120;8.764;2023-03-18T05:29:42;100893.44;;;9.25;71.55
54920;BME280;63804;53.120;8.764;2023-03-18T05:32:09;100882.22;;;9.21;71.65
54920;BME280;63804;53.120;8.764;2023-03-18T05:34:36;100883.91;;;9.22;71.56
54920;BME280;63804;53.120;8.764;2023-03-18T05:37:07;100884.16;;;9.19;71.76
54920;BME280;63804;53.120;8.764;2023-03-18T05:39:33;100894.75;;;9.19;71.58
54920;BME280;63804;53.120;8.764;2023-03-18T05:41:59;100893.78;;;9.20;71.67
54920;BME280;63804;53.120;8.764;2023-03-18T05:44:25;100890.06;;;9.23;71.53
54920;BME280;63804;53.120;8.764;2023-03-18T05:46:52;100891.66;;;9.26;71.47
54920;BME280;63804;53.120;8.764;2023-03-18T05:49:18;100881.88;;;9.26;71.49
54920;BME280;63804;53.120;8.764;2023-03-18T05:51:44;100888.03;;;9.27;71.53
54920;BME280;63804;53.120;8.764;2023-03-18T05:54:11;100891.41;;;9.29;71.41
54920;BME280;63804;53.120;8.764;2023-03-18T05:56:37;100898.41;;;9.30;71.24
54920;BME280;63804;53.120;8.764;2023-03-18T05:59:04;100900.72;;;9.34;70.93
54920;BME280;63804;53.120;8.764;2023-03-18T06:01:30;100905.06;;;9.35;71.23
54920;BME280;63804;53.120;8.764;2023-03-18T06:03:57;100907.56;;;9.37;71.17
54920;BME280;63804;53.120;8.764;2023-03-18T06:06:24;100910.84;;;9.40;71.23
54920;BME280;63804;53.120;8.764;2023-03-18T06:08:50;100916.69;;;9.45;71.06
54920;BME280;63804;53.120;8.764;2023-03-18T06:11:17;100919.31;;;9.45;70.84
54920;BME280;63804;53.120;8.764;2023-03-18T06:13:43;100924.28;;;9.50;71.36
54920;BME280;63804;53.120;8.764;2023-03-18T06:16:10;100917.16;;;9.51;70.74
54920;BME280;63804;53.120;8.764;2023-03-18T06:18:36;100925.97;;;9.51;70.96
54920;BME280;63804;53.120;8.764;2023-03-18T06:21:02;100934.53;;;9.55;70.86
54920;BME280;63804;53.120;8.764;2023-03-18T06:23:28;100936.34;;;9.54;70.97
54920;BME280;63804;53.120;8.764;2023-03-18T06:25:53;100933.91;;;9.51;70.96
54920;BME280;63804;53.120;8.764;2023-03-18T06:28:18;100939.44;;;9.48;71.18
54920;BME280;63804;53.120;8.764;2023-03-18T06:30:44;100936.69;;;9.50;71.22
54920;BME280;63804;53.120;8.764;2023-03-18T06:33:10;100935.00;;;9.49;71.03
54920;BME280;63804;53.120;8.764;2023-03-18T06:35:35;100940.06;;;9.52;71.13
54920;BME280;63804;53.120;8.764;2023-03-18T06:38:01;100946.13;;;9.54;71.01
54920;BME280;63804;53.120;8.764;2023-03-18T06:40:27;100951.50;;;9.52;71.31
54920;BME280;63804;53.120;8.764;2023-03-18T06:42:52;100952.25;;;9.54;71.19
54920;BME280;63804;53.120;8.764;2023-03-18T06:45:18;100962.53;;;9.59;71.04
54920;BME280;63804;53.120;8.764;2023-03-18T06:47:44;100960.38;;;9.64;70.84
54920;BME280;63804;53.120;8.764;2023-03-18T06:50:11;100970.66;;;9.68;70.91
54920;BME280;63804;53.120;8.764;2023-03-18T06:52:38;100967.16;;;9.68;71.17
54920;BME280;63804;53.120;8.764;2023-03-18T06:55:04;100968.00;;;9.68;71.56
54920;BME280;63804;53.120;8.764;2023-03-18T06:57:31;100974.16;;;9.69;71.99
54920;BME280;63804;53.120;8.764;2023-03-18T06:59:57;100967.38;;;9.65;72.49
54920;BME280;63804;53.120;8.764;2023-03-18T07:02:23;100972.91;;;9.62;73.30
54920;BME280;63804;53.120;8.764;2023-03-18T07:04:49;100972.78;;;9.63;73.50
54920;BME280;63804;53.120;8.764;2023-03-18T07:07:15;100973.88;;;9.61;73.60
54920;BME280;63804;53.120;8.764;2023-03-18T07:09:42;100972.91;;;9.62;73.96
54920;BME280;63804;53.120;8.764;2023-03-18T07:12:11;100979.44;;;9.69;74.03
54920;BME280;63804;53.120;8.764;2023-03-18T07:14:38;100979.94;;;9.74;73.79
54920;BME280;63804;53.120;8.764;2023-03-18T07:17:05;100986.84;;;9.77;73.93
54920;BME280;63804;53.120;8.764;2023-03-18T07:19:30;100994.06;;;9.75;74.60
54920;BME280;63804;53.120;8.764;2023-03-18T07:21:58;100985.25;;;9.74;74.59
54920;BME280;63804;53.120;8.764;2023-03-18T07:24:24;100997.22;;;9.80;74.77
54920;BME280;63804;53.120;8.764;2023-03-18T07:26:50;101004.94;;;9.83;74.66
54920;BME280;63804;53.120;8.764;2023-03-18T07:29:17;101013.16;;;9.80;74.94
54920;BME280;63804;53.120;8.764;2023-03-18T07:31:43;101011.91;;;9.73;75.20
54920;BME280;63804;53.120;8.764;2023-03-18T07:34:09;101018.28;;;9.70;75.38
54920;BME280;63804;53.120;8.764;2023-03-18T07:36:35;101015.28;;;9.75;75.19
54920;BME280;63804;53.120;8.764;2023-03-18T07:39:03;101019.75;;;9.74;75.26
54920;BME280;63804;53.120;8.764;2023-03-18T07:41:28;101020.50;;;9.76;74.96
54920;BME280;63804;53.120;8.764;2023-03-18T07:43:54;101040.13;;;9.74;75.15
54920;BME280;63804;53.120;8.764;2023-03-18T07:46:21;101041.81;;;9.75;75.09
54920;BME280;63804;53.120;8.764;2023-03-18T07:48:47;101046.81;;;9.79;75.09
54920;BME280;63804;53.120;8.764;2023-03-18T07:51:18;101042.09;;;9.83;74.84
54920;BME280;63804;53.120;8.764;2023-03-18T07:53:44;101047.94;;;9.88;74.53
54920;BME280;63804;53.120;8.764;2023-03-18T07:56:09;101042.84;;;9.85;74.80
54920;BME280;63804;53.120;8.764;2023-03-18T07:58:36;101049.63;;;9.89;74.81
54920;BME280;63804;53.120;8.764;2023-03-18T08:01:03;101044.31;;;9.89;74.69
54920;BME280;63804;53.120;8.764;2023-03-18T08:03:28;101037.19;;;9.89;74.72
54920;BME280;63804;53.120;8.764;2023-03-18T08:05:54;101051.72;;;9.97;74.60
54920;BME280;63804;53.120;8.764;2023-03-18T08:08:20;101048.63;;;10.03;74.32
54920;BME280;63804;53.120;8.764;2023-03-18T08:10:47;101048.75;;;10.12;73.78
54920;BME280;63804;53.120;8.764;2023-03-18T08:13:12;101057.19;;;10.06;74.25
54920;BME280;63804;53.120;8.764;2023-03-18T08:15:39;101053.22;;;10.12;73.91
54920;BME280;63804;53.120;8.764;2023-03-18T08:18:04;101056.03;;;10.22;73.61
54920;BME280;63804;53.120;8.764;2023-03-18T08:20:30;101076.09;;;10.26;73.66
54920;BME280;63804;53.120;8.764;2023-03-18T08:22:56;101069.19;;;10.23;73.67
54920;BME280;63804;53.120;8.764;2023-03-18T08:25:21;101070.88;;;10.24;73.64
54920;BME280;63804;53.120;8.764;2023-03-18T08:27:48;101072.09;;;10.31;73.26
54920;BME280;63804;53.120;8.764;2023-03-18T08:30:14;101079.34;;;10.29;73.29
54920;BME280;63804;53.120;8.764;2023-03-18T08:32:42;101081.16;;;10.29;73.14
54920;BME280;63804;53.120;8.764;2023-03-18T08:35:08;101077.41;;;10.31;73.01
54920;BME280;63804;53.120;8.764;2023-03-18T08:37:34;101082.38;;;10.36;72.93
54920;BME280;63804;53.120;8.764;2023-03-18T08:40:01;101087.97;;;10.44;72.72
54920;BME280;63804;53.120;8.764;2023-03-18T08:42:27;101092.31;;;10.45;72.74
54920;BME280;63804;53.120;8.764;2023-03-18T08:44:52;101106.44;;;10.46;72.67
54920;BME280;63804;53.120;8.764;2023-03-18T08:47:17;101096.53;;;10.48;72.71
54920;BME280;63804;53.120;8.764;2023-03-18T08:49:44;101101.25;;;10.44;72.60
54920;BME280;63804;53.120;8.764;2023-03-18T08:52:09;101090.72;;;10.42;72.69
54920;BME280;63804;53.120;8.764;2023-03-18T08:54:35;101097.38;;;10.37;72.89
54920;BME280;63804;53.120;8.764;2023-03-18T08:57:01;101100.47;;;10.31;73.05
54920;BME280;63804;53.120;8.764;2023-03-18T08:59:26;101103.63;;;10.36;72.87
54920;BME280;63804;53.120;8.764;2023-03-18T09:01:52;101099.88;;;10.38;72.94
54920;BME280;63804;53.120;8.764;2023-03-18T09:04:18;101107.75;;;10.51;72.20
54920;BME280;63804;53.120;8.764;2023-03-18T09:06:51;101108.19;;;10.69;71.62
54920;BME280;63804;53.120;8.764;2023-03-18T09:09:16;101107.81;;;10.74;71.46
54920;BME280;63804;53.120;8.764;2023-03-18T09:11:42;101112.41;;;10.72;71.75
54920;BME280;63804;53.120;8.764;2023-03-18T09:14:09;101118.09;;;10.67;71.78
54920;BME280;63804;53.120;8.764;2023-03-18T09:16:35;101118.56;;;10.61;72.00
54920;BME280;63804;53.120;8.764;2023-03-18T09:19:02;101114.53;;;10.55;72.31
54920;BME280;63804;53.120;8.764;2023-03-18T09:21:27;101115.72;;;10.51;72.62
54920;BME280;63804;53.120;8.764;2023-03-18T09:23:53;101111.28;;;10.52;72.90
54920;BME280;63804;53.120;8.764;2023-03-18T09:26:19;101116.00;;;10.48;72.67
54920;BME280;63804;53.120;8.764;2023-03-18T09:28:45;101105.69;;;10.43;72.64
54920;BME280;63804;53.120;8.764;2023-03-18T09:31:11;101108.97;;;10.47;72.80
54920;BME280;63804;53.120;8.764;2023-03-18T09:33:37;101110.31;;;10.53;72.87
54920;BME280;63804;53.120;8.764;2023-03-18T09:36:06;101116.72;;;10.61;72.32
54920;BME280;63804;53.120;8.764;2023-03-18T09:38:32;101118.81;;;10.69;72.25
54920;BME280;63804;53.120;8.764;2023-03-18T09:41:20;101127.25;;;10.74;72.34
54920;BME280;63804;53.120;8.764;2023-03-18T09:44:02;101129.69;;;10.77;72.45
54920;BME280;63804;53.120;8.764;2023-03-18T09:54:55;101122.41;;;11.26;70.22
54920;BME280;63804;53.120;8.764;2023-03-18T09:57:26;101134.47;;;11.30;70.57
54920;BME280;63804;53.120;8.764;2023-03-18T10:00:02;101131.97;;;11.39;69.77
54920;BME280;63804;53.120;8.764;2023-03-18T10:02:45;101122.13;;;11.62;69.59
54920;BME280;63804;53.120;8.764;2023-03-18T10:05:15;101127.50;;;11.83;68.77
54920;BME280;63804;53.120;8.764;2023-03-18T10:07:43;101130.53;;;11.90;68.15
54920;BME280;63804;53.120;8.764;2023-03-18T10:10:27;101125.81;;;11.94;68.40
54920;BME280;63804;53.120;8.764;2023-03-18T10:13:19;101140.81;;;11.95;68.86
54920;BME280;63804;53.120;8.764;2023-03-18T10:15:55;101141.75;;;12.05;67.90
54920;BME280;63804;53.120;8.764;2023-03-18T10:18:26;101137.19;;;12.28;67.21
54920;BME280;63804;53.120;8.764;2023-03-18T10:24:05;101146.06;;;12.49;67.04
54920;BME280;63804;53.120;8.764;2023-03-18T10:26:40;101141.81;;;12.47;66.86
54920;BME280;63804;53.120;8.764;2023-03-18T10:31:46;101146.31;;;12.46;66.77
54920;BME280;63804;53.120;8.764;2023-03-18T10:34:18;101156.34;;;12.54;66.37
54920;BME280;63804;53.120;8.764;2023-03-18T10:39:21;101157.84;;;12.89;65.72
54920;BME280;63804;53.120;8.764;2023-03-18T10:41:53;101160.47;;;13.09;65.27
54920;BME280;63804;53.120;8.764;2023-03-18T10:46:56;101170.56;;;13.06;65.25
54920;BME280;63804;53.120;8.764;2023-03-18T10:49:26;101164.34;;;12.96;65.76
54920;BME280;63804;53.120;8.764;2023-03-18T10:51:58;101164.88;;;12.90;65.75
54920;BME280;63804;53.120;8.764;2023-03-18T10:56:50;101166.28;;;12.94;65.52
54920;BME280;63804;53.120;8.764;2023-03-18T10:59:19;101165.31;;;12.95;65.42
54920;BME280;63804;53.120;8.764;2023-03-18T11:02:03;101163.38;;;12.97;65.39
54920;BME280;63804;53.120;8.764;2023-03-18T11:04:37;101165.50;;;13.03;65.18
54920;BME280;63804;53.120;8.764;2023-03-18T11:07:13;101171.50;;;12.95;65.59
54920;BME280;63804;53.120;8.764;2023-03-18T11:09:41;101169.09;;;12.92;65.27
54920;BME280;63804;53.120;8.764;2023-03-18T11:12:15;101167.28;;;12.93;65.32
54920;BME280;63804;53.120;8.764;2023-03-18T11:14:47;101162.91;;;12.92;65.38
54920;BME280;63804;53.120;8.764;2023-03-18T11:17:21;101166.63;;;13.00;65.04
54920;BME280;63804;53.120;8.764;2023-03-18T11:22:44;101162.66;;;12.95;65.49
54920;BME280;63804;53.120;8.764;2023-03-18T11:25:14;101165.19;;;12.96;65.41
54920;BME280;63804;53.120;8.764;2023-03-18T11:27:45;101167.66;;;12.88;65.36
54920;BME280;63804;53.120;8.764;2023-03-18T11:30:25;101160.16;;;13.03;65.10
54920;BME280;63804;53.120;8.764;2023-03-18T11:33:03;101163.28;;;13.08;64.61
54920;BME280;63804;53.120;8.764;2023-03-18T11:38:05;101162.56;;;13.06;65.01
54920;BME280;63804;53.120;8.764;2023-03-18T11:40:31;101162.31;;;13.09;64.84
54920;BME280;63804;53.120;8.764;2023-03-18T11:43:01;101167.81;;;13.17;64.68
54920;BME280;63804;53.120;8.764;2023-03-18T11:48:41;101170.84;;;13.33;64.19
54920;BME280;63804;53.120;8.764;2023-03-18T11:56:33;101167.16;;;13.55;63.35
54920;BME280;63804;53.120;8.764;2023-03-18T12:07:44;101174.16;;;13.87;62.63
54920;BME280;63804;53.120;8.764;2023-03-18T12:16:10;101170.41;;;13.99;60.68
54920;BME280;63804;53.120;8.764;2023-03-18T12:18:49;101169.22;;;13.73;62.37
54920;BME280;63804;53.120;8.764;2023-03-18T12:21:28;101160.75;;;13.68;62.61
54920;BME280;63804;53.120;8.764;2023-03-18T12:29:38;101163.41;;;13.68;61.93
54920;BME280;63804;53.120;8.764;2023-03-18T12:37:40;101168.50;;;13.40;62.28
54920;BME280;63804;53.120;8.764;2023-03-18T12:40:50;101165.97;;;13.39;62.47
54920;BME280;63804;53.120;8.764;2023-03-18T12:46:25;101171.97;;;13.31;62.48
54920;BME280;63804;53.120;8.764;2023-03-18T12:49:10;101179.16;;;13.40;62.20
54920;BME280;63804;53.120;8.764;2023-03-18T12:51:56;101169.78;;;13.46;61.65
54920;BME280;63804;53.120;8.764;2023-03-18T12:54:29;101166.31;;;13.55;61.76
54920;BME280;63804;53.120;8.764;2023-03-18T12:57:22;101166.56;;;13.82;60.82
54920;BME280;63804;53.120;8.764;2023-03-18T12:59:55;101169.25;;;13.92;59.94
54920;BME280;63804;53.120;8.764;2023-03-18T13:04:57;101162.78;;;13.54;61.09
54920;BME280;63804;53.120;8.764;2023-03-18T13:07:48;101164.88;;;13.51;61.71
54920;BME280;63804;53.120;8.764;2023-03-18T13:10:22;101160.53;;;13.50;61.74
54920;BME280;63804;53.120;8.764;2023-03-18T13:12:56;101155.63;;;13.55;61.65
54920;BME280;63804;53.120;8.764;2023-03-18T13:15:43;101158.03;;;13.58;60.68
54920;BME280;63804;53.120;8.764;2023-03-18T13:18:30;101165.28;;;13.87;60.21
54920;BME280;63804;53.120;8.764;2023-03-18T13:20:57;101163.13;;;14.30;58.64
54920;BME280;63804;53.120;8.764;2023-03-18T13:26:56;101155.22;;;14.68;57.23
54920;BME280;63804;53.120;8.764;2023-03-18T13:29:50;101159.03;;;14.65;56.88
54920;BME280;63804;53.120;8.764;2023-03-18T13:33:07;101158.63;;;14.31;57.63
54920;BME280;63804;53.120;8.764;2023-03-18T13:41:21;101157.44;;;13.85;59.94
54920;BME280;63804;53.120;8.764;2023-03-18T13:43:55;101154.75;;;13.85;59.74
54920;BME280;63804;53.120;8.764;2023-03-18T13:46:23;101148.31;;;13.88;59.89
54920;BME280;63804;53.120;8.764;2023-03-18T13:48:55;101147.03;;;13.82;59.58
54920;BME280;63804;53.120;8.764;2023-03-18T13:53:49;101145.25;;;13.62;59.72
54920;BME280;63804;53.120;8.764;2023-03-18T13:56:32;101142.78;;;13.79;58.52
54920;BME280;63804;53.120;8.764;2023-03-18T14:02:31;101141.16;;;14.46;56.03
54920;BME280;63804;53.120;8.764;2023-03-18T14:04:57;101146.38;;;14.28;56.83
54920;BME280;63804;53.120;8.764;2023-03-18T14:07:24;101141.41;;;13.95;57.49
54920;BME280;63804;53.120;8.764;2023-03-18T14:12:22;101143.63;;;13.70;58.31
54920;BME280;63804;53.120;8.764;2023-03-18T14:15:04;101133.81;;;13.80;58.18
54920;BME280;63804;53.120;8.764;2023-03-18T14:22:43;101139.28;;;13.79;57.32
54920;BME280;63804;53.120;8.764;2023-03-18T14:27:58;101143.78;;;13.78;57.28
54920;BME280;63804;53.120;8.764;2023-03-18T14:35:28;101142.56;;;14.21;57.42
54920;BME280;63804;53.120;8.764;2023-03-18T14:40:45;101138.63;;;14.35;56.51
54920;BME280;63804;53.120;8.764;2023-03-18T14:43:21;101141.31;;;14.45;55.70
54920;BME280;63804;53.120;8.764;2023-03-18T14:45:48;101146.22;;;14.59;55.48
54920;BME280;63804;53.120;8.764;2023-03-18T14:48:28;101142.28;;;14.53;53.21